Time;durP1;ratioP1;P1;durP2;ratioP2;P2;SDS_P1;SDS_P2;PMS_P1;PMS_P2;Temp;Humidity;BMP_temperature;BMP_pressure;BME280_temperature;BME280_humidity;BME280_pressure;Samples;Min_cycle;Max_cycle;Signal;HPM_P1;HPM_P2
2023/01/01 00:00:41;;;;;;;399.48;197.88;;;;;;;4.55;75.79;96667.69;4976737;28;20030;-80
2023/01/01 00:03:06;;;;;;;386.33;192.82;;;;;;;4.27;75.47;96628.41;4976513;28;20034;-81
2023/01/01 00:05:32;;;;;;;387.85;188.52;;;;;;;4.12;75.20;96614.63;4958580;28;20030;-80
2023/01/01 00:07:57;;;;;;;376.60;188.88;;;;;;;3.71;75.43;96543.03;4976069;28;20062;-81
2023/01/01 00:10:29;;;;;;;364.67;183.85;;;;;;;4.37;75.42;96649.03;4976655;28;20034;-81
2023/01/01 00:12:58;;;;;;;359.65;180.48;;;;;;;4.53;75.14;96680.19;4976921;28;20034;-81
2023/01/01 00:15:25;;;;;;;371.85;189.30;;;;;;;4.10;75.35;96613.22;4976583;28;20100;-81
2023/01/01 00:17:51;;;;;;;350.73;172.68;;;;;;;4.49;75.43;96665.03;4958572;28;20140;-81
2023/01/01 00:20:17;;;;;;;334.30;167.23;;;;;;;4.08;75.46;96615.22;4976340;28;20076;-80
2023/01/01 00:22:42;;;;;;;326.20;159.10;;;;;;;4.45;75.87;96674.31;4958916;28;20038;-81
2023/01/01 00:25:10;;;;;;;308.55;146.15;;;;;;;4.45;75.67;96676.94;4976584;28;20038;-81
2023/01/01 00:27:35;;;;;;;305.30;145.65;;;;;;;4.43;75.99;96676.31;4979065;28;20030;-81
2023/01/01 00:30:01;;;;;;;303.40;148.98;;;;;;;4.40;75.84;96687.25;4981334;28;20057;-82
2023/01/01 00:32:27;;;;;;;332.15;161.38;;;;;;;3.91;75.78;96621.81;4981122;28;20443;-80
2023/01/01 00:34:52;;;;;;;335.98;159.45;;;;;;;4.29;75.76;96672.84;4979417;28;20034;-81
2023/01/01 00:37:17;;;;;;;347.73;169.27;;;;;;;3.90;75.63;96597.41;4981248;28;20104;-81
2023/01/01 00:39:43;;;;;;;316.63;152.18;;;;;;;3.65;75.93;96568.25;4977764;28;20030;-81
2023/01/01 00:42:09;;;;;;;314.15;151.20;;;;;;;3.63;75.87;96548.47;4980547;28;20038;-80
2023/01/01 00:44:34;;;;;;;341.42;161.13;;;;;;;3.56;75.60;96556.31;4962764;28;20467;-81
2023/01/01 00:47:00;;;;;;;342.10;162.73;;;;;;;4.40;76.13;96685.44;4962884;28;20141;-80
2023/01/01 00:49:26;;;;;;;329.00;157.35;;;;;;;3.75;75.85;96586.25;4963253;28;20125;-81
2023/01/01 00:51:52;;;;;;;323.55;154.88;;;;;;;4.05;76.00;96634.81;4962616;28;20108;-80
2023/01/01 00:54:17;;;;;;;316.13;151.75;;;;;;;3.77;75.36;96587.66;4980269;28;20026;-80
2023/01/01 00:56:43;;;;;;;320.50;152.13;;;;;;;4.28;75.54;96660.72;4961945;28;20545;-81
2023/01/01 00:59:08;;;;;;;321.42;156.77;;;;;;;4.00;75.22;96631.97;4981432;28;20038;-80
2023/01/01 01:01:34;;;;;;;315.45;149.77;;;;;;;4.41;75.36;96688.88;4981213;28;20555;-82
2023/01/01 01:04:01;;;;;;;331.20;154.45;;;;;;;4.41;75.45;96688.88;4981273;28;20096;-81
2023/01/01 01:06:27;;;;;;;317.42;151.50;;;;;;;3.69;75.15;96579.97;4980756;28;20132;-81
2023/01/01 01:08:52;;;;;;;327.63;152.73;;;;;;;3.77;75.78;96592.09;4980739;28;20545;-81
2023/01/01 01:11:21;;;;;;;315.90;154.00;;;;;;;3.71;75.68;96571.91;4980048;28;20037;-81
2023/01/01 01:13:48;;;;;;;321.85;152.68;;;;;;;4.11;75.69;96644.53;4979905;28;20068;-80
2023/01/01 01:16:34;;;;;;;317.98;153.40;;;;;;;4.38;74.98;96679.56;4962522;28;20096;-79
2023/01/01 01:19:02;;;;;;;326.52;152.52;;;;;;;4.32;75.30;96693.47;4979888;28;20057;-80
2023/01/01 01:21:30;;;;;;;320.48;152.07;;;;;;;4.34;75.45;96685.41;4979996;28;20485;-80
2023/01/01 01:24:00;;;;;;;322.63;153.55;;;;;;;3.64;75.19;96571.88;4962067;28;20297;-80
2023/01/01 01:26:29;;;;;;;300.95;152.43;;;;;;;4.32;75.09;96677.72;4961090;28;20046;-79
2023/01/01 01:28:54;;;;;;;316.25;150.75;;;;;;;3.78;75.32;96615.53;4978767;28;20065;-79
2023/01/01 01:31:22;;;;;;;319.83;161.98;;;;;;;3.10;75.26;96494.00;4978587;28;20577;-79
2023/01/01 01:33:48;;;;;;;357.55;175.43;;;;;;;3.68;76.10;96611.66;4960992;28;20045;-80
2023/01/01 01:36:15;;;;;;;325.20;159.27;;;;;;;3.91;76.09;96648.88;4961204;28;20113;-79
2023/01/01 01:38:41;;;;;;;354.23;163.73;;;;;;;3.03;75.41;96497.59;4976750;28;20042;-79
2023/01/01 01:41:07;;;;;;;351.10;169.82;;;;;;;4.11;75.43;96665.53;4979788;28;20038;-80
2023/01/01 01:43:32;;;;;;;374.60;188.70;;;;;;;3.91;76.85;96666.44;4961594;28;20496;-80
2023/01/01 01:46:04;;;;;;;371.83;181.55;;;;;;;3.40;77.46;96588.13;4978978;28;20034;-80
2023/01/01 01:48:36;;;;;;;339.50;171.20;;;;;;;4.04;76.66;96662.09;4979362;28;20204;-80
2023/01/01 01:51:02;;;;;;;362.63;175.52;;;;;;;3.69;76.18;96608.81;4961365;28;20042;-81
2023/01/01 01:53:31;;;;;;;402.67;195.38;;;;;;;3.60;76.13;96599.50;4979359;28;20402;-80
2023/01/01 01:56:00;;;;;;;343.70;179.27;;;;;;;3.85;76.41;96633.94;4979110;28;20457;-80
2023/01/01 01:58:27;;;;;;;351.77;179.73;;;;;;;4.08;76.13;96667.72;4979677;28;20974;-82
2023/01/01 02:00:54;;;;;;;358.15;174.88;;;;;;;3.23;75.48;96540.41;4961949;28;20105;-81
2023/01/01 02:03:31;;;;;;;357.17;180.43;;;;;;;4.02;75.66;96671.97;4979228;28;20034;-80
2023/01/01 02:05:57;;;;;;;389.23;192.35;;;;;;;3.58;75.50;96613.84;4960950;28;20054;-81
2023/01/01 02:08:24;;;;;;;401.70;193.60;;;;;;;3.33;75.58;96561.06;4961179;28;20509;-81
2023/01/01 02:10:50;;;;;;;379.25;190.57;;;;;;;3.82;75.75;96648.25;4979132;28;20155;-81
2023/01/01 02:13:16;;;;;;;371.58;181.95;;;;;;;3.91;75.59;96656.75;4978829;28;20065;-81
2023/01/01 02:15:51;;;;;;;363.45;180.23;;;;;;;3.95;75.90;96688.69;4979307;28;20482;-81
2023/01/01 02:18:32;;;;;;;367.88;179.90;;;;;;;3.61;76.26;96644.91;4960964;28;20070;-80
2023/01/01 02:21:32;;;;;;;369.23;182.45;;;;;;;3.73;75.31;96667.81;4960847;28;20070;-81
2023/01/01 02:24:08;;;;;;;366.83;188.93;;;;;;;3.80;76.22;96696.69;4926950;28;20509;-80
2023/01/01 02:26:45;;;;;;;370.77;181.32;;;;;;;3.80;75.98;96696.69;4978194;28;20038;-80
2023/01/01 02:29:36;;;;;;;365.17;181.80;;;;;;;3.79;75.98;96690.63;4977754;28;20037;-79
2023/01/01 02:32:13;;;;;;;378.63;190.13;;;;;;;3.82;76.07;96697.28;4959375;28;20034;-82
2023/01/01 02:35:34;;;;;;;370.00;188.20;;;;;;;3.81;75.87;96696.47;4960279;28;20049;-80
2023/01/01 02:38:25;;;;;;;376.08;189.23;;;;;;;3.79;75.78;96695.06;4959021;28;20046;-80
2023/01/01 02:40:57;;;;;;;397.20;196.05;;;;;;;3.68;76.29;96690.34;4978282;28;20053;-79
2023/01/01 02:43:23;;;;;;;391.42;200.63;;;;;;;3.17;75.91;96605.94;4962157;28;20049;-78
2023/01/01 02:45:48;;;;;;;391.13;199.10;;;;;;;3.24;76.11;96609.41;4981453;28;20026;-77
2023/01/01 02:48:43;;;;;;;389.95;194.35;;;;;;;3.71;76.07;96687.34;4979830;28;20537;-77
2023/01/01 02:51:27;;;;;;;388.10;191.90;;;;;;;3.61;76.25;96668.53;4979492;28;20125;-78
2023/01/01 02:53:53;;;;;;;399.23;197.38;;;;;;;3.75;75.94;96697.25;4962784;28;20046;-78
2023/01/01 02:56:45;;;;;;;393.38;193.77;;;;;;;3.61;76.09;96661.47;4963492;28;20038;-78
2023/01/01 03:02:22;;;;;;;368.38;181.15;;;;;;;3.09;76.01;96575.44;4980104;28;20096;-78
2023/01/01 03:05:33;;;;;;;372.23;183.10;;;;;;;3.68;76.26;96685.91;4980482;28;20525;-78
2023/01/01 03:08:10;;;;;;;370.13;185.77;;;;;;;3.25;76.40;96617.06;4958425;28;20610;-78
2023/01/01 03:10:41;;;;;;;381.52;188.77;;;;;;;3.72;76.05;96684.53;4980035;28;20034;-78
2023/01/01 03:13:39;;;;;;;373.00;187.80;;;;;;;3.72;75.93;96695.03;4980350;28;20076;-78
2023/01/01 03:16:17;;;;;;;379.27;188.55;;;;;;;3.58;75.81;96659.25;4979456;28;20050;-78
2023/01/01 03:19:10;;;;;;;374.05;186.15;;;;;;;3.73;75.94;96688.78;4979866;28;20041;-78
2023/01/01 03:21:54;;;;;;;371.20;182.80;;;;;;;3.69;75.70;96691.97;4979055;28;20251;-78
2023/01/01 03:24:32;;;;;;;362.67;179.75;;;;;;;3.39;75.62;96642.38;4981051;28;20216;-78
2023/01/01 03:27:03;;;;;;;384.05;191.50;;;;;;;3.69;75.75;96686.72;4980836;28;20030;-78
2023/01/01 03:29:33;;;;;;;404.02;191.35;;;;;;;3.30;75.88;96625.16;4980308;28;20081;-78
2023/01/01 03:32:04;;;;;;;393.17;196.77;;;;;;;3.68;75.98;96674.59;4979945;28;20049;-78
2023/01/01 03:34:35;;;;;;;387.73;194.50;;;;;;;3.59;75.62;96681.81;4962293;28;20252;-78
2023/01/01 03:37:05;;;;;;;385.00;195.85;;;;;;;3.26;75.83;96625.75;4961983;28;20464;-78
2023/01/01 03:39:37;;;;;;;384.40;190.48;;;;;;;3.61;75.80;96685.06;4979080;28;20113;-78
2023/01/01 03:42:11;;;;;;;380.58;190.57;;;;;;;3.61;75.65;96682.44;4961506;28;20034;-78
2023/01/01 03:44:53;;;;;;;397.83;198.90;;;;;;;3.59;75.75;96681.81;4960641;28;20074;-78
2023/01/01 03:47:19;;;;;;;384.85;194.00;;;;;;;2.90;75.88;96592.63;4979396;28;20528;-78
2023/01/01 03:49:45;;;;;;;383.73;191.95;;;;;;;3.20;76.05;96637.81;4979624;28;20603;-78
2023/01/01 03:52:30;;;;;;;379.98;191.10;;;;;;;3.27;75.88;96656.22;4979336;28;20038;-78
2023/01/01 03:55:23;;;;;;;387.35;193.35;;;;;;;3.48;75.80;96682.38;4977475;28;20034;-78
2023/01/01 03:57:57;;;;;;;390.05;189.60;;;;;;;3.44;76.18;96678.50;4979746;28;20043;-78
2023/01/01 04:00:27;;;;;;;396.77;196.80;;;;;;;3.48;75.98;96690.25;4979872;28;20030;-78
2023/01/01 04:03:09;;;;;;;403.58;205.13;;;;;;;3.46;75.95;96687.00;4961566;28;20038;-79
2023/01/01 04:05:37;;;;;;;426.48;206.60;;;;;;;3.44;76.33;96684.56;4979805;28;20460;-79
2023/01/01 04:08:03;;;;;;;411.15;208.30;;;;;;;2.94;76.19;96598.31;4979507;28;20310;-79
2023/01/01 04:10:32;;;;;;;407.20;206.27;;;;;;;2.91;76.08;96601.31;4980149;28;20435;-79
2023/01/01 04:12:57;;;;;;;405.40;204.15;;;;;;;3.44;76.75;96691.63;4981915;28;20070;-79
2023/01/01 04:15:25;;;;;;;399.30;206.52;;;;;;;3.51;76.31;96686.44;4962143;28;20358;-79
2023/01/01 04:17:52;;;;;;;414.38;207.80;;;;;;;3.54;76.28;96691.28;4962063;28;20096;-79
2023/01/01 04:20:18;;;;;;;401.42;203.95;;;;;;;3.35;76.01;96667.38;4979486;28;20050;-79
2023/01/01 04:22:44;;;;;;;403.15;205.60;;;;;;;2.91;75.77;96599.50;4979603;28;20638;-79
2023/01/01 04:25:10;;;;;;;409.90;207.55;;;;;;;3.53;75.71;96694.91;4961264;28;20046;-78
2023/01/01 04:27:36;;;;;;;401.33;201.15;;;;;;;3.16;75.87;96641.81;4979498;28;20076;-78
2023/01/01 04:30:03;;;;;;;401.40;201.35;;;;;;;3.00;75.62;96616.69;4979715;28;20066;-78
2023/01/01 04:32:29;;;;;;;387.10;195.32;;;;;;;3.09;75.37;96647.00;4979245;28;20540;-78
2023/01/01 04:34:54;;;;;;;397.63;199.30;;;;;;;3.20;75.51;96671.09;4961379;28;20050;-78
2023/01/01 04:37:20;;;;;;;384.85;193.30;;;;;;;3.35;75.40;96698.03;4979031;28;20053;-78
2023/01/01 04:39:45;;;;;;;408.27;197.68;;;;;;;3.32;75.24;96706.25;4981209;28;20469;-78
2023/01/01 04:42:11;;;;;;;390.55;194.27;;;;;;;3.35;75.24;96696.22;4961908;28;20501;-78
2023/01/01 04:44:36;;;;;;;398.75;193.32;;;;;;;3.31;75.27;96699.41;4980688;28;20030;-78
2023/01/01 04:47:02;;;;;;;385.17;195.50;;;;;;;2.68;75.81;96620.69;4979374;28;20568;-79
2023/01/01 04:49:28;;;;;;;395.08;190.40;;;;;;;2.52;75.60;96578.22;4980517;28;20038;-79
2023/01/01 04:51:54;;;;;;;397.55;199.75;;;;;;;3.11;75.66;96675.66;4979823;28;20446;-78
2023/01/01 04:54:19;;;;;;;379.90;184.93;;;;;;;2.39;75.49;96562.41;4962729;28;20060;-79
2023/01/01 04:56:45;;;;;;;387.80;184.38;;;;;;;2.66;75.56;96608.78;4979747;28;20512;-79
2023/01/01 04:59:10;;;;;;;368.88;185.07;;;;;;;3.19;75.87;96691.25;4961445;28;20046;-79
2023/01/01 05:01:36;;;;;;;382.52;188.23;;;;;;;2.60;75.45;96614.75;4962294;28;20057;-79
2023/01/01 05:04:01;;;;;;;377.10;186.45;;;;;;;3.05;76.29;96692.94;4961716;28;20041;-79
2023/01/01 05:06:28;;;;;;;368.98;180.30;;;;;;;3.12;76.10;96700.06;4978393;28;20038;-78
2023/01/01 05:08:54;;;;;;;378.42;185.93;;;;;;;2.74;75.78;96631.44;4961207;28;20391;-78
2023/01/01 05:11:26;;;;;;;397.35;191.55;;;;;;;2.98;75.89;96678.16;4978306;28;20073;-78
2023/01/01 05:13:52;;;;;;;;;;;;;;;3.17;75.98;96706.34;4963399;28;20030;-78
2023/01/01 05:16:23;;;;;;;377.00;183.82;;;;;;;3.18;75.97;96705.38;4982804;28;19922;-81
2023/01/01 05:18:49;;;;;;;378.30;183.20;;;;;;;2.59;75.98;96610.56;4964662;28;20568;-79
2023/01/01 05:21:18;;;;;;;398.70;187.32;;;;;;;2.82;76.06;96649.63;4982337;28;20054;-78
2023/01/01 05:23:44;;;;;;;394.48;195.35;;;;;;;3.17;76.04;96701.13;4980666;28;20331;-78
2023/01/01 05:26:18;;;;;;;385.73;189.90;;;;;;;3.16;76.10;96715.22;4982990;28;20479;-79
2023/01/01 05:28:44;;;;;;;373.33;188.13;;;;;;;2.78;75.92;96656.22;4982232;28;20117;-79
2023/01/01 05:31:13;;;;;;;381.38;187.75;;;;;;;2.48;75.89;96601.38;4982499;28;20875;-79
2023/01/01 05:33:39;;;;;;;387.70;190.00;;;;;;;2.09;75.71;96541.63;4982863;28;20034;-79
2023/01/01 05:36:06;;;;;;;379.70;185.05;;;;;;;3.16;75.81;96714.41;4982423;28;20097;-79
2023/01/01 05:38:32;;;;;;;368.45;182.52;;;;;;;2.68;75.77;96649.50;4964341;28;20034;-79
2023/01/01 05:40:57;;;;;;;367.40;180.73;;;;;;;3.16;75.43;96723.09;4964246;28;20433;-79
2023/01/01 05:43:23;;;;;;;361.70;177.30;;;;;;;3.06;75.40;96710.28;4982433;28;20035;-79
2023/01/01 05:45:48;;;;;;;370.42;180.82;;;;;;;2.95;75.33;96682.00;4964709;28;20034;-79
2023/01/01 05:48:13;;;;;;;367.00;181.50;;;;;;;1.80;75.31;96500.69;4982507;28;20022;-79
2023/01/01 05:50:39;;;;;;;365.15;174.88;;;;;;;3.01;75.25;96689.09;4982286;28;20472;-79
2023/01/01 05:53:04;;;;;;;365.73;173.32;;;;;;;3.10;75.27;96705.50;4981672;28;20566;-78
2023/01/01 05:55:30;;;;;;;337.65;162.70;;;;;;;2.38;75.53;96595.63;4981483;28;20117;-78
2023/01/01 05:57:56;;;;;;;339.55;163.38;;;;;;;3.01;75.79;96711.88;4979177;28;20396;-77
2023/01/01 06:00:22;;;;;;;342.77;160.88;;;;;;;2.52;75.43;96627.97;4971571;28;20492;-78
2023/01/01 06:02:49;;;;;;;323.52;149.15;;;;;;;2.66;75.54;96648.91;4982566;28;20480;-78
2023/01/01 06:05:15;;;;;;;324.95;155.68;;;;;;;2.73;75.33;96654.19;4963333;28;20089;-78
2023/01/01 06:07:40;;;;;;;323.15;151.85;;;;;;;2.78;75.60;96672.75;4981342;28;20820;-78
2023/01/01 06:10:06;;;;;;;306.35;147.25;;;;;;;2.75;75.58;96674.97;4962976;28;20065;-77
2023/01/01 06:12:32;;;;;;;307.02;151.60;;;;;;;2.69;75.53;96658.16;4962538;28;20038;-77
2023/01/01 06:14:57;;;;;;;329.75;152.23;;;;;;;2.56;75.12;96637.91;4963142;28;20473;-78
2023/01/01 06:17:22;;;;;;;315.63;146.80;;;;;;;2.50;75.22;96632.63;4980838;28;20045;-78
2023/01/01 06:19:48;;;;;;;309.27;140.52;;;;;;;3.08;75.36;96725.84;4963407;28;20223;-78
2023/01/01 06:22:13;;;;;;;306.30;146.40;;;;;;;2.72;75.14;96678.75;4962725;28;20034;-78
2023/01/01 06:24:39;;;;;;;313.25;150.05;;;;;;;2.57;75.17;96654.44;4980229;28;20041;-78
2023/01/01 06:27:05;;;;;;;306.92;142.65;;;;;;;2.39;74.92;96609.53;4980816;28;20914;-78
2023/01/01 06:29:31;;;;;;;308.85;139.80;;;;;;;1.68;75.07;96502.16;4963145;28;20076;-79
2023/01/01 06:31:56;;;;;;;299.13;137.02;;;;;;;2.89;75.08;96697.66;4981005;28;20041;-78
2023/01/01 06:34:22;;;;;;;292.50;137.05;;;;;;;2.62;75.15;96652.06;4963304;28;20039;-79
2023/01/01 06:36:47;;;;;;;292.38;138.20;;;;;;;2.41;75.10;96629.31;4963715;28;20140;-78
2023/01/01 06:39:12;;;;;;;309.08;144.57;;;;;;;2.92;75.24;96710.38;4963299;28;20501;-78
2023/01/01 06:41:38;;;;;;;303.05;144.32;;;;;;;2.93;75.28;96712.00;4980654;28;20113;-78
2023/01/01 06:44:04;;;;;;;307.25;142.18;;;;;;;2.37;75.82;96645.56;4980656;28;20030;-78
2023/01/01 06:46:32;;;;;;;291.77;137.10;;;;;;;2.42;76.92;96693.78;4976723;28;20069;-78
2023/01/01 06:49:04;;;;;;;289.15;134.02;;;;;;;2.41;76.04;96670.41;4980340;28;20117;-78
2023/01/01 06:51:43;;;;;;;260.92;121.57;;;;;;;2.91;76.41;96755.91;4963206;28;20041;-78
2023/01/01 06:54:09;;;;;;;231.13;112.55;;;;;;;2.44;76.14;96672.66;4961084;28;20061;-79
2023/01/01 06:56:36;;;;;;;227.70;108.10;;;;;;;1.90;76.19;96605.03;4981054;28;20026;-79
2023/01/01 06:59:02;;;;;;;218.18;104.97;;;;;;;1.94;76.50;96643.72;4982024;28;20408;-79
2023/01/01 07:01:30;;;;;;;213.98;104.40;;;;;;;2.37;76.91;96727.53;4982079;28;20030;-80
2023/01/01 07:03:56;;;;;;;214.82;99.93;;;;;;;2.80;76.73;96769.53;4947685;28;20038;-79
2023/01/01 07:06:22;;;;;;;199.55;98.65;;;;;;;2.41;76.22;96705.25;4981446;28;20316;-79
2023/01/01 07:08:48;;;;;;;203.02;98.70;;;;;;;2.28;76.01;96661.41;4980181;28;20088;-78
2023/01/01 07:11:14;;;;;;;205.10;96.13;;;;;;;2.79;75.67;96712.88;4962960;28;20042;-78
2023/01/01 07:13:39;;;;;;;192.20;99.40;;;;;;;3.16;75.44;96767.66;4980320;28;20787;-78
2023/01/01 07:16:06;;;;;;;208.07;96.85;;;;;;;3.24;75.37;96772.78;4962815;28;20144;-79
2023/01/01 07:18:32;;;;;;;184.50;90.00;;;;;;;3.02;75.12;96726.59;4980317;28;20481;-79
2023/01/01 07:21:00;;;;;;;181.15;90.10;;;;;;;2.30;75.27;96601.81;4980128;28;20065;-78
2023/01/01 07:23:27;;;;;;;185.57;88.30;;;;;;;2.95;75.61;96700.34;4962564;28;20173;-79
2023/01/01 07:25:53;;;;;;;176.50;87.18;;;;;;;3.46;75.90;96761.25;4980263;28;20042;-78
2023/01/01 07:28:20;;;;;;;195.30;91.15;;;;;;;3.18;75.81;96709.78;4979524;28;20105;-78
2023/01/01 07:30:46;;;;;;;188.43;94.10;;;;;;;3.59;75.92;96775.44;4980144;28;20026;-78
2023/01/01 07:33:13;;;;;;;199.90;95.68;;;;;;;3.61;75.99;96762.97;4962013;28;20030;-78
2023/01/01 07:35:39;;;;;;;199.65;96.78;;;;;;;3.46;75.59;96731.59;4980473;28;20034;-79
2023/01/01 07:38:05;;;;;;;202.50;97.43;;;;;;;3.67;75.69;96747.25;4980391;28;20046;-78
2023/01/01 07:40:30;;;;;;;213.68;101.15;;;;;;;3.12;75.52;96669.44;4981022;28;20517;-79
2023/01/01 07:42:55;;;;;;;216.05;100.95;;;;;;;3.02;75.58;96650.59;4980686;28;20085;-78
2023/01/01 07:45:21;;;;;;;209.48;101.80;;;;;;;3.03;75.55;96676.63;4981046;28;20045;-78
2023/01/01 07:47:52;;;;;;;235.70;107.07;;;;;;;3.19;75.58;96719.28;4980399;28;20408;-78
2023/01/01 07:50:18;;;;;;;218.52;102.28;;;;;;;3.39;75.17;96725.47;4980618;28;20926;-79
2023/01/01 07:52:44;;;;;;;194.02;93.45;;;;;;;2.87;74.63;96642.81;4979872;28;20038;-79
2023/01/01 07:55:14;;;;;;;186.55;90.20;;;;;;;3.05;74.33;96669.34;4979882;28;20044;-78
2023/01/01 07:57:40;;;;;;;195.13;91.80;;;;;;;3.32;74.30;96706.25;4962096;28;20491;-78
2023/01/01 08:00:08;;;;;;;181.15;88.72;;;;;;;3.53;74.66;96766.53;4961787;28;20156;-78
2023/01/01 08:02:33;;;;;;;179.18;89.95;;;;;;;3.17;74.49;96701.13;4962398;28;20145;-79
2023/01/01 08:04:58;;;;;;;184.35;92.07;;;;;;;3.22;74.74;96722.31;4980454;28;20042;-79
2023/01/01 08:07:24;;;;;;;182.73;89.50;;;;;;;2.62;74.18;96610.16;4980176;28;20035;-79
2023/01/01 08:09:49;;;;;;;180.68;88.15;;;;;;;3.70;74.24;96775.75;4980816;28;20038;-79
2023/01/01 08:12:14;;;;;;;184.35;88.28;;;;;;;3.70;74.11;96772.31;4979583;28;20469;-79
2023/01/01 08:14:40;;;;;;;180.30;89.03;;;;;;;3.76;74.19;96784.66;4962375;28;20042;-79
2023/01/01 08:17:05;;;;;;;195.00;93.00;;;;;;;3.24;74.48;96738.69;4980307;28;20092;-79
2023/01/01 08:19:31;;;;;;;180.95;90.22;;;;;;;3.58;74.33;96764.19;4970645;28;20114;-79
2023/01/01 08:21:56;;;;;;;192.40;89.75;;;;;;;3.27;74.30;96701.59;4981069;28;20070;-79
2023/01/01 08:24:21;;;;;;;191.55;93.68;;;;;;;3.41;74.55;96724.31;4980395;28;20078;-79
2023/01/01 08:26:48;;;;;;;174.55;90.55;;;;;;;3.89;74.56;96787.41;4980554;28;20097;-79
2023/01/01 08:29:13;;;;;;;183.65;92.05;;;;;;;3.54;74.15;96714.88;4980127;28;20112;-79
2023/01/01 08:31:40;;;;;;;182.82;91.53;;;;;;;4.04;74.21;96780.22;4980452;28;20034;-79
2023/01/01 08:34:05;;;;;;;188.70;90.43;;;;;;;3.69;73.82;96723.47;4980186;28;20045;-79
2023/01/01 08:36:31;;;;;;;177.73;90.20;;;;;;;3.65;73.75;96723.06;4980120;28;20046;-79
2023/01/01 08:38:56;;;;;;;188.23;93.07;;;;;;;3.87;74.00;96747.41;4962081;28;20581;-79
2023/01/01 08:41:22;;;;;;;191.43;92.45;;;;;;;3.48;73.74;96683.19;4962774;28;20045;-79
2023/01/01 08:43:47;;;;;;;187.10;92.20;;;;;;;4.20;74.01;96786.94;4964029;28;20061;-79
2023/01/01 08:46:13;;;;;;;174.93;90.25;;;;;;;3.72;73.92;96692.41;4980439;28;20092;-79
2023/01/01 08:48:38;;;;;;;183.40;91.40;;;;;;;3.41;73.62;96642.19;4964397;28;20044;-79
2023/01/01 08:51:04;;;;;;;184.80;89.55;;;;;;;3.46;73.66;96661.56;4984318;28;20042;-79
2023/01/01 08:53:31;;;;;;;172.90;86.85;;;;;;;4.32;73.62;96787.22;4984062;28;20039;-79
2023/01/01 08:55:57;;;;;;;174.20;86.97;;;;;;;4.08;75.02;96780.63;4966101;28;20104;-79
2023/01/01 08:58:22;;;;;;;172.15;85.60;;;;;;;3.48;74.38;96670.06;4984677;28;20038;-79
2023/01/01 09:00:48;;;;;;;165.82;85.45;;;;;;;4.07;75.09;96782.44;4984881;28;20372;-79
2023/01/01 09:03:13;;;;;;;166.30;85.00;;;;;;;3.78;74.59;96741.50;4984836;28;20038;-78
2023/01/01 09:05:44;;;;;;;179.32;89.07;;;;;;;3.91;75.04;96776.69;4965864;28;20512;-79
2023/01/01 09:08:10;;;;;;;176.75;90.20;;;;;;;4.07;75.36;96764.06;4966247;28;20042;-79
2023/01/01 09:10:35;;;;;;;176.27;89.20;;;;;;;4.00;75.58;96770.28;4966630;28;20050;-78
2023/01/01 09:13:01;;;;;;;180.82;88.55;;;;;;;3.82;75.42;96729.59;4983791;28;20138;-79
2023/01/01 09:15:26;;;;;;;176.57;89.18;;;;;;;3.47;74.87;96646.66;4984358;28;20049;-79
2023/01/01 09:17:51;;;;;;;181.68;91.60;;;;;;;4.29;74.68;96764.78;4965803;28;20030;-79
2023/01/01 09:20:17;;;;;;;177.63;86.53;;;;;;;3.81;75.11;96688.59;4983563;28;20058;-79
2023/01/01 09:22:42;;;;;;;174.02;89.68;;;;;;;3.83;74.55;96660.34;4970339;28;20109;-79
2023/01/01 09:25:08;;;;;;;176.88;87.38;;;;;;;4.20;74.09;96702.91;4984242;28;20038;-79
2023/01/01 09:27:33;;;;;;;165.50;88.47;;;;;;;4.27;73.94;96693.28;4970364;28;20030;-79
2023/01/01 09:29:59;;;;;;;175.45;92.28;;;;;;;4.48;73.95;96708.88;4983006;28;20416;-79
2023/01/01 09:32:24;;;;;;;170.00;85.72;;;;;;;4.29;73.67;96667.59;4965524;28;20038;-79
2023/01/01 09:34:50;;;;;;;163.82;86.25;;;;;;;4.37;73.46;96685.00;4983569;28;20073;-79
2023/01/01 09:37:15;;;;;;;166.75;86.45;;;;;;;4.33;73.17;96675.91;4971434;28;20126;-79
2023/01/01 09:39:41;;;;;;;173.77;88.25;;;;;;;4.17;73.20;96638.50;4983286;28;20429;-79
2023/01/01 09:42:21;;;;;;;170.57;86.43;;;;;;;4.73;73.89;96724.91;4983452;28;20608;-79
2023/01/01 09:44:49;;;;;;;160.85;83.97;;;;;;;4.84;73.33;96726.97;4982747;28;20096;-79
2023/01/01 09:47:28;;;;;;;165.45;82.78;;;;;;;4.83;74.09;96727.97;4983540;28;20121;-79
2023/01/01 09:50:17;;;;;;;157.05;82.78;;;;;;;4.76;73.28;96697.41;4965203;28;20042;-79
2023/01/01 09:53:15;;;;;;;160.65;82.90;;;;;;;4.64;73.54;96684.88;4982305;28;20588;-79
2023/01/01 09:55:47;;;;;;;163.85;80.28;;;;;;;4.95;73.52;96720.31;4983973;28;20038;-79
2023/01/01 09:58:14;;;;;;;166.38;80.68;;;;;;;4.15;74.13;96576.66;4983531;28;20042;-79
2023/01/01 10:00:43;;;;;;;158.80;81.93;;;;;;;4.56;74.00;96656.16;4981786;28;20041;-79
2023/01/01 10:03:33;;;;;;;146.43;81.00;;;;;;;4.76;74.26;96694.78;4965314;28;20202;-79
2023/01/01 10:06:22;;;;;;;152.00;79.97;;;;;;;4.99;74.63;96711.00;4983119;28;20377;-79
2023/01/01 10:08:56;;;;;;;163.05;83.63;;;;;;;5.03;74.93;96710.38;4983166;28;20038;-79
2023/01/01 10:11:34;;;;;;;154.70;82.15;;;;;;;4.68;74.78;96653.75;4964384;28;20578;-79
2023/01/01 10:14:03;;;;;;;159.35;79.82;;;;;;;5.06;75.33;96680.25;4982204;28;20531;-79
2023/01/01 10:16:36;;;;;;;159.90;81.70;;;;;;;5.24;74.74;96700.69;4982868;28;20039;-79
2023/01/01 10:19:36;;;;;;;151.65;76.22;;;;;;;5.37;74.56;96683.09;4982425;28;20073;-79
2023/01/01 10:22:11;;;;;;;162.45;81.47;;;;;;;6.17;73.81;96676.66;4962873;28;20115;-79
2023/01/01 10:24:58;;;;;;;157.02;78.90;;;;;;;7.22;71.62;96700.75;4963067;28;20034;-79
2023/01/01 10:27:40;;;;;;;146.23;73.07;;;;;;;7.81;68.43;96618.34;4962358;28;20141;-77
2023/01/01 10:30:21;;;;;;;128.40;67.88;;;;;;;8.83;65.06;96632.47;4961011;28;20053;-78
2023/01/01 10:32:48;;;;;;;133.65;68.25;;;;;;;9.60;63.19;96676.41;4960616;28;20117;-78
2023/01/01 10:35:29;;;;;;;127.75;67.15;;;;;;;9.33;60.85;96632.88;4962223;28;20080;-78
2023/01/01 10:37:57;;;;;;;126.35;68.05;;;;;;;9.99;59.67;96645.72;4961201;28;20042;-78
2023/01/01 10:40:25;;;;;;;129.43;65.40;;;;;;;10.39;59.13;96659.00;4961202;28;20145;-78
2023/01/01 10:42:59;;;;;;;118.53;65.95;;;;;;;10.78;58.21;96657.34;4944158;28;20492;-79
2023/01/01 10:45:40;;;;;;;120.35;63.75;;;;;;;10.91;56.87;96597.84;4961528;28;20039;-79
2023/01/01 10:48:13;;;;;;;115.78;62.08;;;;;;;11.58;56.51;96664.25;4962095;28;20042;-79
2023/01/01 10:50:45;;;;;;;114.63;61.10;;;;;;;11.62;56.24;96628.16;4961382;28;20109;-78
2023/01/01 10:53:47;;;;;;;111.30;59.97;;;;;;;12.10;55.29;96658.59;4961348;28;20066;-78
2023/01/01 10:56:16;;;;;;;101.85;57.25;;;;;;;11.97;54.31;96593.31;4944856;28;20057;-78
2023/01/01 10:58:44;;;;;;;99.85;55.90;;;;;;;12.46;54.12;96643.84;4961253;28;20058;-78
2023/01/01 11:01:19;;;;;;;98.03;54.38;;;;;;;12.53;53.46;96641.81;4944832;28;20629;-80
2023/01/01 11:04:04;;;;;;;98.90;55.58;;;;;;;12.24;53.51;96604.78;4962878;28;20101;-79
2023/01/01 11:06:36;;;;;;;101.50;57.50;;;;;;;12.19;53.99;96593.28;4977066;28;20049;-79
2023/01/01 11:09:25;;;;;;;105.65;55.05;;;;;;;12.01;53.80;96581.09;4962285;28;20038;-81
2023/01/01 11:12:04;;;;;;;98.50;54.58;;;;;;;11.87;54.11;96553.28;4928924;28;20050;-78
2023/01/01 11:14:47;;;;;;;99.38;54.33;;;;;;;11.97;54.57;96599.44;4961864;28;20541;-78
2023/01/01 11:17:20;;;;;;;103.15;56.65;;;;;;;12.18;54.50;96610.28;4976217;28;20046;-78
2023/01/01 11:19:48;;;;;;;96.75;54.60;;;;;;;12.20;54.73;96616.19;4962939;28;20031;-78
2023/01/01 11:22:51;;;;;;;99.25;55.78;;;;;;;12.08;54.85;96613.63;4981937;28;20379;-78
2023/01/01 11:25:28;;;;;;;97.28;50.83;;;;;;;11.78;54.77;96568.06;4945629;28;20051;-78
2023/01/01 11:28:13;;;;;;;96.43;52.20;;;;;;;12.08;54.83;96615.47;4980908;28;20516;-79